createdAt,value
2023-03-21T00:01:06.467Z,5.56
2023-03-21T00:04:04.078Z,5.47
2023-03-21T00:07:00.979Z,5.74
2023-03-21T00:10:08.683Z,5.60
2023-03-21T00:13:13.364Z,5.51
2023-03-21T00:16:19.075Z,5.36
2023-03-21T00:19:20.875Z,5.59
2023-03-21T00:22:17.747Z,5.69
2023-03-21T00:25:14.630Z,5.42
2023-03-21T00:28:11.535Z,5.40
2023-03-21T00:31:09.692Z,5.43
2023-03-21T00:34:06.642Z,5.56
2023-03-21T00:37:03.832Z,5.56
2023-03-21T00:40:01.367Z,5.68
2023-03-21T00:42:58.446Z,5.61
2023-03-21T00:45:56.224Z,5.47
2023-03-21T00:48:54.108Z,5.54
2023-03-21T00:51:51.394Z,5.48
2023-03-21T00:54:48.599Z,5.51
2023-03-21T00:57:52.834Z,5.52
2023-03-21T01:00:53.057Z,5.61
2023-03-21T01:03:51.150Z,5.47
2023-03-21T01:06:48.797Z,5.57
2023-03-21T01:09:45.635Z,5.52
2023-03-21T01:12:42.483Z,5.37
2023-03-21T01:15:51.562Z,5.44
2023-03-21T01:18:48.674Z,5.32
2023-03-21T01:21:45.522Z,5.23
2023-03-21T01:24:52.370Z,5.32
2023-03-21T01:27:51.448Z,5.33
2023-03-21T01:30:51.872Z,5.29
2023-03-21T01:33:48.971Z,5.41
2023-03-21T01:36:46.126Z,5.41
2023-03-21T01:39:43.094Z,5.34
2023-03-21T01:42:40.282Z,5.43
2023-03-21T01:46:23.928Z,5.30
2023-03-21T01:49:36.009Z,5.16
2023-03-21T01:52:39.006Z,5.15
2023-03-21T01:55:37.526Z,5.18
2023-03-21T01:58:35.787Z,5.16
2023-03-21T02:01:34.808Z,5.17
2023-03-21T02:04:31.658Z,5.08
2023-03-21T02:07:35.839Z,5.09
2023-03-21T02:10:33.260Z,5.11
2023-03-21T02:13:30.829Z,5.06
2023-03-21T02:16:48.458Z,5.04
2023-03-21T02:20:00.698Z,5.18
2023-03-21T02:23:28.187Z,5.28
2023-03-21T02:26:52.445Z,5.21
2023-03-21T02:30:26.578Z,5.11
2023-03-21T02:34:07.181Z,5.04
2023-03-21T02:37:37.643Z,5.10
2023-03-21T02:41:03.401Z,5.06
2023-03-21T02:44:31.126Z,5.08
2023-03-21T02:47:47.565Z,5.16
2023-03-21T02:50:52.606Z,5.11
2023-03-21T02:54:38.367Z,5.11
2023-03-21T02:57:42.570Z,5.10
2023-03-21T03:00:42.871Z,5.05
2023-03-21T03:03:39.758Z,5.14
2023-03-21T03:07:17.826Z,5.21
2023-03-21T03:10:48.109Z,5.02
2023-03-21T03:18:01.019Z,5.13
2023-03-21T03:21:44.086Z,5.16
2023-03-21T03:24:54.581Z,5.08
2023-03-21T03:27:52.933Z,5.04
2023-03-21T03:31:07.603Z,4.98
2023-03-21T03:34:11.681Z,5.10
2023-03-21T03:37:16.794Z,5.11
2023-03-21T03:40:37.522Z,5.11
2023-03-21T03:43:39.523Z,5.11
2023-03-21T03:46:47.448Z,5.11
2023-03-21T03:50:00.667Z,5.07
2023-03-21T03:53:22.007Z,5.06
2023-03-21T03:56:19.933Z,5.07
2023-03-21T03:59:19.429Z,5.02
2023-03-21T04:02:17.353Z,5.03
2023-03-21T04:05:14.679Z,4.81
2023-03-21T04:08:11.513Z,4.90
2023-03-21T04:11:08.675Z,4.87
2023-03-21T04:14:05.599Z,4.92
2023-03-21T04:17:02.438Z,4.76
2023-03-21T04:20:10.781Z,4.67
2023-03-21T04:23:09.819Z,4.72
2023-03-21T04:26:07.379Z,4.66
2023-03-21T04:29:05.281Z,4.84
2023-03-21T04:32:02.191Z,4.83
2023-03-21T04:34:59.881Z,4.72
2023-03-21T04:37:56.864Z,4.55
2023-03-21T04:40:53.661Z,4.57
2023-03-21T04:43:51.872Z,4.64
2023-03-21T04:46:50.321Z,4.76
2023-03-21T04:49:50.110Z,4.71
2023-03-21T04:52:46.941Z,4.76
2023-03-21T04:55:43.750Z,4.57
2023-03-21T04:58:41.276Z,4.65
2023-03-21T05:01:38.093Z,4.74
2023-03-21T05:04:34.925Z,4.75
2023-03-21T05:07:32.781Z,4.60
2023-03-21T05:10:29.610Z,4.63
2023-03-21T05:13:26.441Z,4.51
2023-03-21T05:16:26.830Z,4.61
2023-03-21T05:19:34.828Z,4.80
2023-03-21T05:22:40.336Z,4.74
2023-03-21T05:25:40.343Z,4.81
2023-03-21T05:28:37.349Z,4.61
2023-03-21T05:31:34.451Z,4.57
2023-03-21T05:34:32.161Z,4.63
2023-03-21T05:37:29.202Z,4.64
2023-03-21T05:40:26.006Z,4.74
2023-03-21T05:43:22.831Z,4.90
2023-03-21T05:46:19.709Z,4.87
2023-03-21T05:49:16.520Z,4.89
2023-03-21T05:52:13.451Z,4.90
2023-03-21T05:55:10.322Z,4.82
2023-03-21T05:58:07.184Z,5.00
2023-03-21T06:01:04.215Z,4.94
2023-03-21T06:04:01.189Z,5.04
2023-03-21T06:06:58.227Z,5.17
2023-03-21T06:09:55.165Z,5.22
2023-03-21T06:12:51.978Z,5.24
2023-03-21T06:15:48.837Z,5.28
2023-03-21T06:18:45.721Z,5.31
2023-03-21T06:21:42.961Z,5.31
2023-03-21T06:24:39.794Z,5.31
2023-03-21T06:27:37.480Z,5.48
2023-03-21T06:30:34.297Z,5.45
2023-03-21T06:33:31.435Z,5.56
2023-03-21T06:36:28.259Z,5.60
2023-03-21T06:39:26.279Z,5.66
2023-03-21T06:42:23.130Z,5.80
2023-03-21T06:45:20.225Z,5.99
2023-03-21T06:48:17.087Z,5.95
2023-03-21T06:51:16.016Z,5.93
2023-03-21T06:54:14.539Z,6.03
2023-03-21T06:57:11.536Z,6.07
2023-03-21T07:00:09.519Z,6.14
2023-03-21T07:03:06.990Z,6.16
2023-03-21T07:06:11.844Z,6.11
2023-03-21T07:09:08.784Z,6.35
2023-03-21T07:12:05.769Z,6.43
2023-03-21T07:15:04.426Z,6.43
2023-03-21T07:18:01.256Z,6.40
2023-03-21T07:20:58.655Z,6.78
2023-03-21T07:23:55.480Z,6.69
2023-03-21T07:26:52.293Z,6.80
2023-03-21T07:29:50.444Z,6.82
2023-03-21T07:32:47.685Z,6.88
2023-03-21T07:35:44.542Z,6.84
2023-03-21T07:38:43.384Z,6.95
2023-03-21T07:41:40.338Z,7.08
2023-03-21T07:44:37.170Z,7.11
2023-03-21T07:47:34.510Z,7.27
2023-03-21T07:50:31.555Z,7.18
2023-03-21T07:53:28.438Z,7.36
2023-03-21T07:56:25.328Z,7.27
2023-03-21T07:59:22.387Z,7.38
2023-03-21T08:02:19.489Z,7.56
2023-03-21T08:05:19.220Z,7.57
2023-03-21T08:08:16.089Z,8.19
2023-03-21T08:11:13.449Z,7.96
2023-03-21T08:14:10.360Z,7.78
2023-03-21T08:17:09.459Z,7.93
2023-03-21T08:20:09.947Z,8.04
2023-03-21T08:23:06.842Z,8.13
2023-03-21T08:26:03.769Z,7.91
2023-03-21T08:29:00.901Z,8.29
2023-03-21T08:31:58.205Z,10.27
2023-03-21T08:34:58.747Z,10.29
2023-03-21T08:37:55.657Z,10.02
2023-03-21T08:40:52.489Z,9.11
2023-03-21T08:43:49.443Z,9.37
2023-03-21T08:46:46.315Z,10.14
2023-03-21T08:49:45.698Z,10.54
2023-03-21T08:52:42.912Z,11.16
2023-03-21T08:55:40.059Z,10.09
2023-03-21T08:58:37.786Z,10.12
2023-03-21T09:01:34.734Z,10.08
2023-03-21T09:04:31.902Z,10.33
2023-03-21T09:07:28.753Z,13.50
2023-03-21T09:10:25.751Z,13.50
2023-03-21T09:13:23.512Z,13.55
2023-03-21T09:16:20.416Z,13.40
2023-03-21T09:19:18.008Z,12.88
2023-03-21T09:22:17.336Z,11.80
2023-03-21T09:25:16.167Z,12.27
2023-03-21T09:28:14.087Z,12.42
2023-03-21T09:31:12.291Z,14.00
2023-03-21T09:34:09.847Z,13.25
2023-03-21T09:37:13.310Z,15.41
2023-03-21T09:40:53.844Z,13.69
2023-03-21T09:44:30.446Z,13.18
2023-03-21T09:47:34.850Z,14.81
2023-03-21T09:50:36.918Z,13.89
2023-03-21T09:53:40.097Z,13.51
2023-03-21T09:56:41.021Z,15.28
2023-03-21T09:59:42.941Z,14.32
2023-03-21T10:02:47.214Z,13.29
2023-03-21T10:05:45.907Z,15.06
2023-03-21T10:08:47.076Z,18.30
2023-03-21T10:11:58.729Z,14.58
2023-03-21T10:14:58.738Z,15.45
2023-03-21T10:18:07.973Z,15.56
2023-03-21T10:21:05.924Z,17.24
2023-03-21T10:24:02.865Z,16.00
2023-03-21T10:27:01.675Z,17.07
2023-03-21T10:30:00.923Z,17.41
2023-03-21T10:33:04.982Z,12.65
2023-03-21T10:36:08.237Z,14.05
2023-03-21T10:39:37.772Z,13.41
2023-03-21T10:42:36.645Z,13.15
2023-03-21T10:45:35.656Z,12.77
2023-03-21T10:48:38.339Z,12.59
2023-03-21T10:51:39.062Z,12.94
2023-03-21T10:54:36.143Z,13.03
2023-03-21T10:57:33.377Z,13.48
2023-03-21T11:00:37.694Z,13.48
2023-03-21T11:03:43.659Z,13.50
2023-03-21T11:06:50.699Z,13.20
2023-03-21T11:09:54.962Z,13.37
2023-03-21T11:12:57.805Z,12.49
2023-03-21T11:16:05.707Z,13.15
2023-03-21T11:19:32.400Z,12.94
2023-03-21T11:22:39.280Z,12.94
2023-03-21T11:25:41.504Z,12.91
2023-03-21T11:28:44.835Z,13.67
2023-03-21T11:31:42.043Z,13.21
2023-03-21T11:34:53.262Z,13.09
2023-03-21T11:37:56.438Z,13.40
2023-03-21T11:40:59.276Z,13.52
2023-03-21T11:43:57.221Z,13.56
2023-03-21T11:46:55.114Z,13.57
2023-03-21T11:49:58.432Z,13.76
2023-03-21T11:53:42.651Z,14.09
2023-03-21T11:56:51.553Z,14.01
2023-03-21T12:00:15.853Z,13.55
2023-03-21T12:03:48.778Z,13.34
2023-03-21T12:07:00.695Z,14.10
2023-03-21T12:10:34.131Z,14.45
2023-03-21T12:14:00.139Z,15.33
2023-03-21T12:17:42.476Z,15.60
2023-03-21T12:21:04.284Z,16.95
2023-03-21T12:24:23.317Z,15.72
2023-03-21T12:27:35.618Z,16.59
2023-03-21T12:30:49.742Z,17.02
2023-03-21T12:34:08.181Z,16.60
2023-03-21T12:37:39.170Z,15.89
2023-03-21T12:41:04.137Z,16.42
2023-03-21T12:44:17.655Z,15.32
2023-03-21T12:47:22.494Z,14.69
2023-03-21T12:50:37.339Z,14.72
2023-03-21T12:53:49.788Z,14.88
2023-03-21T12:57:12.846Z,14.57
2023-03-21T13:00:26.362Z,14.94
2023-03-21T13:03:46.672Z,14.66
2023-03-21T13:06:46.559Z,14.15
2023-03-21T13:09:43.852Z,14.21
2023-03-21T13:13:18.230Z,14.29
2023-03-21T13:16:46.271Z,14.22
2023-03-21T13:19:52.649Z,14.26
2023-03-21T13:22:49.630Z,14.66
2023-03-21T13:25:50.346Z,14.49
2023-03-21T13:28:48.252Z,14.63
2023-03-21T13:31:52.078Z,14.48
2023-03-21T13:35:04.980Z,13.89
2023-03-21T13:38:12.756Z,13.71
2023-03-21T13:41:17.108Z,14.15
2023-03-21T13:44:33.118Z,13.93
2023-03-21T13:47:53.081Z,13.90
2023-03-21T13:51:04.741Z,13.56
2023-03-21T13:54:07.478Z,13.63
2023-03-21T13:57:30.418Z,13.53
2023-03-21T14:00:31.135Z,13.57
2023-03-21T14:03:30.784Z,13.44
2023-03-21T14:07:01.839Z,13.81
2023-03-21T14:10:06.591Z,13.53
2023-03-21T14:13:06.283Z,13.33
2023-03-21T14:16:14.385Z,13.23
2023-03-21T14:19:12.302Z,13.48
2023-03-21T14:22:13.619Z,13.71
2023-03-21T14:25:17.518Z,13.19
2023-03-21T14:28:22.891Z,13.81
2023-03-21T14:31:21.090Z,13.76
2023-03-21T14:34:18.884Z,13.43
2023-03-21T14:37:38.887Z,13.30
2023-03-21T14:40:36.205Z,13.00
2023-03-21T14:43:36.160Z,13.05
2023-03-21T14:46:33.872Z,12.83
2023-03-21T14:49:34.639Z,13.19
2023-03-21T14:52:33.551Z,12.59
2023-03-21T14:55:30.533Z,12.74
2023-03-21T14:58:29.062Z,12.80
2023-03-21T15:01:32.201Z,12.91
2023-03-21T15:04:31.819Z,12.59
2023-03-21T15:07:34.725Z,12.53
2023-03-21T15:10:32.305Z,12.79
2023-03-21T15:13:45.436Z,12.43
2023-03-21T15:16:42.518Z,12.29
2023-03-21T15:19:43.709Z,12.29
2023-03-21T15:22:49.005Z,12.22
2023-03-21T15:25:46.109Z,12.76
2023-03-21T15:28:51.445Z,12.66
2023-03-21T15:31:48.866Z,12.11
2023-03-21T15:34:46.583Z,12.24
2023-03-21T15:37:51.773Z,12.24
2023-03-21T15:40:48.681Z,12.29
2023-03-21T15:44:13.512Z,12.21
2023-03-21T15:47:14.197Z,12.18
2023-03-21T15:50:26.828Z,12.02
2023-03-21T15:53:24.335Z,11.95
2023-03-21T15:56:22.981Z,11.95
2023-03-21T15:59:19.944Z,11.81
2023-03-21T16:02:24.157Z,11.88
2023-03-21T16:05:33.702Z,11.69
2023-03-21T16:08:36.730Z,11.67
2023-03-21T16:11:43.967Z,11.48
2023-03-21T16:14:42.647Z,11.60
2023-03-21T16:17:41.105Z,11.32
2023-03-21T16:20:44.993Z,11.22
2023-03-21T16:23:42.206Z,11.41
2023-03-21T16:26:46.093Z,11.10
2023-03-21T16:29:43.000Z,11.37
2023-03-21T16:32:40.185Z,11.14
2023-03-21T16:35:37.017Z,10.85
2023-03-21T16:38:34.008Z,10.43
2023-03-21T16:41:30.976Z,10.33
2023-03-21T16:44:28.084Z,10.17
2023-03-21T16:47:24.991Z,10.14
2023-03-21T16:50:39.878Z,9.74
2023-03-21T16:53:36.906Z,9.60
2023-03-21T16:56:44.808Z,9.81
2023-03-21T16:59:42.763Z,9.60
2023-03-21T17:02:39.609Z,9.44
2023-03-21T17:05:36.436Z,9.35
2023-03-21T17:08:33.320Z,8.82
2023-03-21T17:11:35.962Z,9.04
2023-03-21T17:14:32.777Z,8.86
2023-03-21T17:17:29.597Z,8.84
2023-03-21T17:20:35.240Z,8.84
2023-03-21T17:23:32.092Z,8.54
2023-03-21T17:26:29.464Z,8.48
2023-03-21T17:29:26.330Z,8.62
2023-03-21T17:32:23.153Z,8.48
2023-03-21T17:35:21.994Z,8.53
2023-03-21T17:38:18.933Z,8.50
2023-03-21T17:41:18.681Z,8.32
2023-03-21T17:44:15.920Z,8.51
2023-03-21T17:47:13.096Z,8.42
2023-03-21T17:50:19.498Z,8.68
2023-03-21T17:53:16.334Z,8.58
2023-03-21T17:56:25.813Z,8.46
2023-03-21T17:59:23.565Z,8.31
2023-03-21T18:02:20.660Z,8.21
2023-03-21T18:05:18.259Z,8.15
2023-03-21T18:08:15.517Z,8.28
2023-03-21T18:11:14.034Z,8.34
2023-03-21T18:14:17.684Z,8.36
2023-03-21T18:17:19.348Z,8.31
2023-03-21T18:20:19.899Z,8.30
2023-03-21T18:23:18.673Z,8.25
2023-03-21T18:26:22.822Z,8.43
2023-03-21T18:32:38.001Z,8.10
2023-03-21T18:35:35.097Z,8.22
2023-03-21T18:38:31.965Z,8.05
2023-03-21T18:41:29.356Z,8.30
2023-03-21T18:44:26.622Z,8.19
2023-03-21T18:47:23.612Z,8.04
2023-03-21T18:50:21.049Z,8.09
2023-03-21T18:53:17.886Z,8.07
2023-03-21T18:56:57.671Z,7.89
2023-03-21T18:59:34.621Z,7.95
2023-03-21T19:02:31.911Z,8.02
2023-03-21T19:05:29.184Z,8.20
2023-03-21T19:08:26.030Z,8.26
2023-03-21T19:11:23.688Z,8.29
2023-03-21T19:14:20.600Z,8.07
2023-03-21T19:18:15.746Z,7.76
2023-03-21T19:20:34.901Z,7.75
2023-03-21T19:23:56.366Z,7.81
2023-03-21T19:26:49.301Z,7.70
2023-03-21T19:29:59.788Z,7.95
2023-03-21T19:33:03.128Z,7.83
2023-03-21T19:36:15.390Z,7.93
2023-03-21T19:39:19.355Z,7.89
2023-03-21T19:42:17.774Z,7.71
2023-03-21T19:45:14.657Z,7.58
2023-03-21T19:48:11.827Z,7.57
2023-03-21T19:51:27.754Z,7.58
2023-03-21T19:54:25.752Z,7.52
2023-03-21T19:57:24.940Z,7.59
2023-03-21T20:00:22.302Z,7.44
2023-03-21T20:03:22.088Z,7.56
2023-03-21T20:06:19.589Z,7.63
2023-03-21T20:09:50.829Z,7.55
2023-03-21T20:12:34.130Z,7.34
2023-03-21T20:15:31.142Z,7.25
2023-03-21T20:18:28.028Z,7.21
2023-03-21T20:21:27.250Z,7.18
2023-03-21T20:24:24.098Z,7.19
2023-03-21T20:27:25.040Z,7.03
2023-03-21T20:30:22.069Z,6.97
2023-03-21T20:33:19.530Z,7.01
2023-03-21T20:36:38.033Z,6.93
2023-03-21T20:39:35.289Z,6.76
2023-03-21T20:42:35.360Z,6.83
2023-03-21T20:45:33.279Z,6.82
2023-03-21T20:48:30.736Z,6.83
2023-03-21T20:54:45.672Z,6.95
2023-03-21T20:57:42.557Z,6.72
2023-03-21T21:00:39.974Z,6.70
2023-03-21T21:03:41.135Z,6.69
2023-03-21T21:06:38.882Z,6.53
2023-03-21T21:09:35.719Z,6.45
2023-03-21T21:12:32.531Z,6.44
2023-03-21T21:15:29.373Z,6.22
2023-03-21T21:18:26.332Z,6.22
2023-03-21T21:21:23.161Z,5.91
2023-03-21T21:24:20.181Z,5.99
2023-03-21T21:27:17.048Z,6.08
2023-03-21T21:30:14.226Z,6.04
2023-03-21T21:33:11.142Z,6.07
2023-03-21T21:36:10.142Z,5.84
2023-03-21T21:39:07.531Z,5.72
2023-03-21T21:42:05.566Z,5.82
2023-03-21T21:45:02.450Z,5.70
2023-03-21T21:47:59.315Z,5.59
2023-03-21T21:50:56.183Z,5.58
2023-03-21T21:53:55.901Z,5.52
2023-03-21T21:56:54.079Z,5.40
2023-03-21T21:59:53.891Z,5.47
2023-03-21T22:02:52.122Z,5.41
2023-03-21T22:05:50.466Z,5.41
2023-03-21T22:08:47.304Z,5.23
2023-03-21T22:11:44.111Z,5.29
2023-03-21T22:14:40.970Z,5.34
2023-03-21T22:17:39.954Z,5.39
2023-03-21T22:20:37.359Z,5.32
2023-03-21T22:23:34.523Z,5.29
2023-03-21T22:26:31.456Z,5.39
2023-03-21T22:29:28.884Z,5.26
2023-03-21T22:32:25.702Z,5.21
2023-03-21T22:35:22.704Z,5.22
2023-03-21T22:38:24.188Z,5.11
2023-03-21T22:41:21.224Z,5.09
2023-03-21T22:44:18.150Z,5.06
2023-03-21T22:47:15.438Z,5.04
2023-03-21T22:50:12.322Z,5.11
2023-03-21T22:53:09.225Z,5.14
2023-03-21T22:56:06.687Z,5.19
2023-03-21T22:59:03.583Z,5.14
2023-03-21T23:02:00.559Z,5.26
2023-03-21T23:04:57.379Z,5.04
2023-03-21T23:07:54.191Z,5.02
2023-03-21T23:10:51.612Z,5.07
2023-03-21T23:13:53.625Z,4.84
2023-03-21T23:17:00.079Z,4.79
2023-03-21T23:19:57.004Z,4.66
2023-03-21T23:22:54.602Z,4.46
2023-03-21T23:25:52.168Z,4.65
2023-03-21T23:28:49.843Z,4.68
2023-03-21T23:31:46.921Z,4.46
2023-03-21T23:34:44.179Z,4.43
2023-03-21T23:37:52.191Z,4.72
2023-03-21T23:40:49.284Z,4.44
2023-03-21T23:43:47.002Z,4.39
2023-03-21T23:46:43.809Z,4.44
2023-03-21T23:49:40.832Z,4.43
2023-03-21T23:52:38.244Z,4.32
2023-03-21T23:55:37.805Z,4.27
2023-03-21T23:58:34.617Z,4.26
